createdAt,value
2019-03-17T00:04:56.717Z,2.95
2019-03-17T00:15:05.813Z,2.12
2019-03-17T00:25:10.081Z,1.80
2019-03-17T00:35:15.824Z,1.70
2019-03-17T00:45:20.900Z,2.62
2019-03-17T00:55:25.982Z,2.30
2019-03-17T01:05:31.615Z,2.33
2019-03-17T01:15:36.863Z,2.45
2019-03-17T01:25:41.899Z,2.50
2019-03-17T01:35:47.233Z,2.20
2019-03-17T01:45:52.707Z,2.22
2019-03-17T01:55:57.759Z,1.85
2019-03-17T02:06:02.816Z,1.90
2019-03-17T02:16:07.927Z,2.22
2019-03-17T02:26:13.339Z,2.00
2019-03-17T02:36:18.918Z,2.10
2019-03-17T02:46:23.977Z,2.37
2019-03-17T02:56:29.308Z,1.70
2019-03-17T03:06:34.693Z,1.47
2019-03-17T03:16:40.008Z,0.85
2019-03-17T03:26:45.061Z,1.10
2019-03-17T03:36:50.342Z,1.10
2019-03-17T03:46:55.703Z,0.80
2019-03-17T03:57:00.994Z,1.00
2019-03-17T04:07:06.994Z,1.15
2019-03-17T04:17:12.506Z,1.00
2019-03-17T04:27:17.555Z,0.80
2019-03-17T04:37:22.684Z,0.78
2019-03-17T04:47:27.744Z,0.90
2019-03-17T04:57:33.110Z,1.00
2019-03-17T05:07:38.595Z,0.90
2019-03-17T05:17:43.697Z,0.85
2019-03-17T05:27:48.758Z,1.00
2019-03-17T05:37:54.099Z,1.10
2019-03-17T05:47:59.175Z,1.65
2019-03-17T05:58:04.230Z,1.77
2019-03-17T06:08:09.283Z,1.37
2019-03-17T06:18:14.346Z,1.80
2019-03-17T06:28:21.564Z,3.40
2019-03-17T06:38:26.478Z,2.33
2019-03-17T06:48:32.013Z,2.00
2019-03-17T06:58:37.162Z,1.30
2019-03-17T07:08:42.251Z,1.35
2019-03-17T07:18:47.835Z,1.20
2019-03-17T07:28:52.899Z,1.10
2019-03-17T07:39:10.856Z,1.00
2019-03-17T07:49:13.552Z,1.00
2019-03-17T07:59:23.674Z,1.40
2019-03-17T08:09:29.020Z,1.92
2019-03-17T08:19:34.170Z,6.53
2019-03-17T08:29:39.275Z,1.87
2019-03-17T08:39:44.364Z,1.75
2019-03-17T08:49:49.423Z,1.45
2019-03-17T08:59:54.734Z,1.32
2019-03-17T09:09:59.849Z,2.00
2019-03-17T09:20:05.433Z,1.40
2019-03-17T09:30:11.798Z,1.40
2019-03-17T09:40:16.967Z,1.75
2019-03-17T09:50:22.191Z,1.30
2019-03-17T10:00:27.246Z,1.42
2019-03-17T10:10:32.354Z,1.50
2019-03-17T10:20:37.680Z,1.55
2019-03-17T10:30:42.835Z,2.02
2019-03-17T10:40:47.923Z,2.87
2019-03-17T10:50:53.534Z,1.50
2019-03-17T11:00:58.715Z,1.37
2019-03-17T11:11:03.830Z,1.45
2019-03-17T11:21:09.202Z,1.45
2019-03-17T11:31:14.503Z,1.82
2019-03-17T11:41:19.610Z,1.30
2019-03-17T11:51:24.698Z,1.40
2019-03-17T12:01:30.856Z,1.00
2019-03-17T12:11:36.007Z,0.98
2019-03-17T12:21:41.146Z,1.27
2019-03-17T12:31:46.551Z,1.40
2019-03-17T12:41:51.707Z,1.50
2019-03-17T12:51:56.891Z,1.50
2019-03-17T13:02:01.997Z,1.55
2019-03-17T13:12:07.572Z,1.20
2019-03-17T13:22:12.679Z,1.62
2019-03-17T13:32:17.778Z,1.20
2019-03-17T13:42:23.102Z,0.80
2019-03-17T13:52:28.263Z,0.55
2019-03-17T14:02:33.365Z,0.70
2019-03-17T14:12:38.461Z,0.70
2019-03-17T14:22:43.811Z,0.75
2019-03-17T14:32:48.870Z,0.60
2019-03-17T14:42:55.647Z,0.50
2019-03-17T14:53:01.064Z,0.50
2019-03-17T15:03:06.555Z,0.40
2019-03-17T15:13:11.893Z,0.40
2019-03-17T15:23:16.962Z,0.30
2019-03-17T15:33:22.029Z,0.40
2019-03-17T15:43:27.383Z,0.45
2019-03-17T15:53:32.468Z,0.30
2019-03-17T16:03:37.671Z,0.40
2019-03-17T16:13:42.837Z,0.50
2019-03-17T16:23:48.197Z,0.47
2019-03-17T16:33:53.347Z,1.00
2019-03-17T16:43:58.723Z,0.53
2019-03-17T16:54:04.057Z,0.50
2019-03-17T17:04:09.231Z,0.50
2019-03-17T17:14:14.440Z,0.60
2019-03-17T17:24:19.994Z,0.62
2019-03-17T17:34:25.102Z,0.93
2019-03-17T17:44:30.175Z,0.85
2019-03-17T17:54:35.500Z,0.68
2019-03-17T18:04:40.575Z,1.00
2019-03-17T18:14:45.870Z,0.90
2019-03-17T18:24:50.967Z,1.07
2019-03-17T18:34:56.066Z,0.72
2019-03-17T18:45:01.185Z,0.70
2019-03-17T18:55:06.419Z,0.70
2019-03-17T19:05:12.053Z,1.10
2019-03-17T19:15:17.254Z,1.00
2019-03-17T19:25:22.355Z,0.90
2019-03-17T19:35:27.443Z,0.50
2019-03-17T19:45:32.531Z,0.72
2019-03-17T19:55:37.881Z,0.80
2019-03-17T20:05:43.218Z,0.62
2019-03-17T20:15:48.511Z,0.90
2019-03-17T20:25:53.849Z,0.95
2019-03-17T20:35:59.743Z,1.20
2019-03-17T20:46:04.807Z,1.10
2019-03-17T20:56:09.881Z,1.07
2019-03-17T21:06:15.005Z,1.10
2019-03-17T21:16:20.108Z,0.75
2019-03-17T21:26:25.486Z,0.88
2019-03-17T21:36:30.590Z,1.20
2019-03-17T21:46:35.682Z,0.80
2019-03-17T21:56:41.062Z,0.75
2019-03-17T22:06:46.392Z,0.50
2019-03-17T22:16:51.575Z,0.60
2019-03-17T22:26:56.882Z,0.80
2019-03-17T22:37:02.066Z,1.50
2019-03-17T22:47:07.131Z,1.80
2019-03-17T22:57:12.293Z,2.37
2019-03-17T23:07:17.408Z,2.77
2019-03-17T23:17:22.459Z,2.60
2019-03-17T23:27:27.636Z,2.10
2019-03-17T23:37:33.024Z,1.70
2019-03-17T23:47:38.089Z,2.10
2019-03-17T23:57:43.229Z,2.65
